F/V Ar Gavotten — FS9490 — position and weather

sailwx.info

Track history (hours):
 
Tides and Currents Weather Stations Pressure Air Temp Water Temp Dewpoint Dewpoint Depression Visibility Wind Speed Wind Dir Waves Ship Positions

F/V Ar Gavotten

Last reported at 2018-Jun-25 01:57 UTC. Time now 2018-Jun-25 02:00 UTC.
Position N 48°46' W 003°59'.

Length 13 m.

Type: Other ship. MMSI: 227570230.

Date/timePositionNaut miles runAvg speedWind from/ knotsBaromVisibWave heightAir tempDewpointWater temp
2018-Jun-25 01:57N 48°46' W 003°59'25 1.3
2018-Jun-24 05:43N 49°08' W 004°16'4 2.9
2018-Jun-24 04:19N 49°05' W 004°12'6 8.0
2018-Jun-24 03:32N 48°60' W 004°08'0 8.0
2018-Jun-24 03:29N 48°59' W 004°08'4 8.0
2018-Jun-24 02:56N 48°55' W 004°05'14 0.7
2018-Jun-23 05:43N 49°07' W 004°18'3 1.7
2018-Jun-23 03:43N 49°09' W 004°14'2 7.8
2018-Jun-23 03:30N 49°07' W 004°13'5 8.0
2018-Jun-23 02:55N 49°03' W 004°10'3 8.1
2018-Jun-23 02:29N 48°60' W 004°08'4 8.2
2018-Jun-23 01:59N 48°56' W 004°05'  
Track history (hours):
 
Tides and Currents Weather Stations Pressure Air Temp Water Temp Dewpoint Dewpoint Depression Visibility Wind Speed Wind Dir Waves Ship Positions

F/V Ar Gavotten

Last reported at 2018-Jun-25 01:57 UTC. Time now 2018-Jun-25 02:00 UTC.
Position N 48°46' W 003°59'.

Length 13 m.

Type: Other ship. MMSI: 227570230.

Date/timePositionNaut miles runAvg speedWind from/ knotsBaromVisibWave heightAir tempDewpointWater temp
2018-Jun-25 01:57N 48°46' W 003°59'25 1.3
2018-Jun-24 05:43N 49°08' W 004°16'4 2.9
2018-Jun-24 04:19N 49°05' W 004°12'6 8.0
2018-Jun-24 03:32N 48°60' W 004°08'0 8.0
2018-Jun-24 03:29N 48°59' W 004°08'4 8.0
2018-Jun-24 02:56N 48°55' W 004°05'14 0.7
2018-Jun-23 05:43N 49°07' W 004°18'3 1.7
2018-Jun-23 03:43N 49°09' W 004°14'2 7.8
2018-Jun-23 03:30N 49°07' W 004°13'5 8.0
2018-Jun-23 02:55N 49°03' W 004°10'3 8.1
2018-Jun-23 02:29N 48°60' W 004°08'4 8.2
2018-Jun-23 01:59N 48°56' W 004°05'  

Dump ship's entire track history